createdAt,value
2023-03-06T00:02:27.456Z,76.65
2023-03-06T00:07:29.260Z,77.27
2023-03-06T00:12:31.650Z,77.26
2023-03-06T00:17:33.631Z,78.35
2023-03-06T00:22:35.537Z,79.24
2023-03-06T00:27:37.384Z,77.29
2023-03-06T00:32:39.163Z,78.14
2023-03-06T00:37:41.448Z,77.97
2023-03-06T00:42:43.325Z,77.35
2023-03-06T00:47:45.095Z,77.11
2023-03-06T00:52:46.974Z,76.98
2023-03-06T00:57:48.845Z,77.53
2023-03-06T01:02:50.827Z,78.28
2023-03-06T01:07:52.699Z,79.40
2023-03-06T01:12:55.472Z,79.24
2023-03-06T01:17:57.173Z,79.06
2023-03-06T01:22:59.352Z,79.51
2023-03-06T01:28:01.125Z,79.73
2023-03-06T01:33:02.899Z,80.54
2023-03-06T01:38:04.777Z,81.29
2023-03-06T01:43:28.676Z,81.36
2023-03-06T01:48:30.753Z,80.33
2023-03-06T01:53:32.946Z,80.78
2023-03-06T01:58:35.644Z,81.28
2023-03-06T02:03:38.742Z,81.06
2023-03-06T02:08:40.619Z,81.80
2023-03-06T02:13:45.083Z,81.94
2023-03-06T02:18:47.140Z,81.30
2023-03-06T02:24:15.643Z,81.21
2023-03-06T02:29:24.194Z,81.92
2023-03-06T02:34:25.948Z,82.36
2023-03-06T02:39:30.789Z,82.80
2023-03-06T02:44:35.684Z,82.85
2023-03-06T02:49:37.311Z,82.89
2023-03-06T02:54:39.490Z,82.67
2023-03-06T02:59:41.265Z,82.12
2023-03-06T03:04:43.172Z,82.59
2023-03-06T03:09:45.009Z,82.78
2023-03-06T03:14:48.324Z,82.94
2023-03-06T03:19:50.200Z,83.57
2023-03-06T03:24:51.945Z,83.93
2023-03-06T03:29:57.033Z,83.71
2023-03-06T03:34:58.714Z,83.74
2023-03-06T03:40:00.784Z,84.30
2023-03-06T03:45:03.134Z,84.61
2023-03-06T03:50:05.561Z,85.17
2023-03-06T03:55:08.258Z,85.33
2023-03-06T04:00:15.560Z,83.64
2023-03-06T04:05:18.253Z,82.90
2023-03-06T04:10:20.234Z,83.41
2023-03-06T04:15:23.031Z,83.74
2023-03-06T04:20:25.620Z,83.18
2023-03-06T04:25:27.396Z,82.75
2023-03-06T04:30:29.276Z,83.49
2023-03-06T04:35:31.812Z,82.37
2023-03-06T04:40:36.129Z,81.51
2023-03-06T04:45:38.118Z,81.10
2023-03-06T04:50:40.166Z,81.47
2023-03-06T04:55:42.556Z,81.36
2023-03-06T05:00:44.595Z,80.40
2023-03-06T05:05:46.609Z,81.01
2023-03-06T05:10:55.648Z,81.39
2023-03-06T05:16:06.919Z,82.90
2023-03-06T05:21:09.030Z,82.61
2023-03-06T05:26:13.294Z,82.52
2023-03-06T05:31:16.160Z,83.48
2023-03-06T05:36:18.052Z,83.35
2023-03-06T05:41:19.920Z,82.78
2023-03-06T05:46:22.490Z,83.50
2023-03-06T05:51:26.348Z,84.32
2023-03-06T05:56:28.126Z,84.29
2023-03-06T06:01:29.994Z,84.14
2023-03-06T06:06:31.961Z,82.16
2023-03-06T06:11:33.715Z,77.00
2023-03-06T06:16:36.043Z,67.15
2023-03-06T06:21:37.909Z,55.35
2023-03-06T06:26:40.494Z,48.53
2023-03-06T06:31:42.266Z,43.35
2023-03-06T06:36:44.252Z,37.54
2023-03-06T06:42:02.319Z,33.41
2023-03-06T06:47:22.379Z,29.52
2023-03-06T06:52:25.269Z,28.67
2023-03-06T06:57:27.190Z,27.98
2023-03-06T07:02:28.963Z,26.98
2023-03-06T07:07:33.613Z,25.19
2023-03-06T07:12:36.816Z,23.55
2023-03-06T07:17:39.150Z,21.44
2023-03-06T07:22:50.750Z,20.30
2023-03-06T07:27:54.727Z,19.30
2023-03-06T07:32:58.346Z,19.22
2023-03-06T07:38:00.636Z,17.46
2023-03-06T07:43:19.018Z,16.90
2023-03-06T07:48:21.284Z,16.49
2023-03-06T07:53:24.287Z,16.12
2023-03-06T07:58:26.474Z,15.60
2023-03-06T08:03:28.164Z,15.51
2023-03-06T08:08:30.020Z,15.22
2023-03-06T08:13:32.307Z,15.06
2023-03-06T08:18:35.589Z,15.06
2023-03-06T08:23:37.601Z,15.03
2023-03-06T08:28:39.894Z,14.59
2023-03-06T08:33:42.266Z,14.23
2023-03-06T08:38:44.367Z,14.24
2023-03-06T08:43:47.351Z,14.00
2023-03-06T08:48:49.141Z,13.57
2023-03-06T08:53:51.517Z,13.48
2023-03-06T08:58:55.271Z,13.42
2023-03-06T09:04:03.941Z,13.21
2023-03-06T09:09:07.076Z,12.79
2023-03-06T09:14:09.561Z,13.15
2023-03-06T09:19:11.750Z,12.78
2023-03-06T09:24:13.628Z,13.07
2023-03-06T09:29:16.698Z,13.60
2023-03-06T09:34:18.624Z,12.51
2023-03-06T09:39:20.488Z,13.22
2023-03-06T09:44:29.033Z,13.44
2023-03-06T09:50:05.611Z,13.08
2023-03-06T09:55:13.537Z,13.19
2023-03-06T10:00:19.063Z,13.27
2023-03-06T10:05:25.685Z,13.12
2023-03-06T10:10:58.479Z,13.40
2023-03-06T10:16:29.347Z,13.53
2023-03-06T10:21:51.485Z,15.37
2023-03-06T10:27:08.937Z,18.41
2023-03-06T10:32:24.446Z,20.88
2023-03-06T10:37:30.413Z,22.71
2023-03-06T10:42:34.324Z,24.02
2023-03-06T10:47:37.828Z,25.87
2023-03-06T10:52:39.819Z,27.86
2023-03-06T10:57:41.901Z,27.97
2023-03-06T11:02:43.679Z,28.91
2023-03-06T11:07:59.060Z,28.50
2023-03-06T11:13:07.190Z,29.39
2023-03-06T11:18:09.168Z,29.78
2023-03-06T11:23:26.407Z,30.20
2023-03-06T11:28:32.253Z,29.31
2023-03-06T11:33:42.007Z,30.55
2023-03-06T11:38:50.879Z,32.32
2023-03-06T11:44:00.843Z,31.91
2023-03-06T11:49:26.265Z,31.89
2023-03-06T11:54:28.044Z,31.78
2023-03-06T12:00:01.052Z,31.75
2023-03-06T12:05:12.454Z,32.07
2023-03-06T12:10:24.482Z,32.07
2023-03-06T12:15:50.511Z,33.03
2023-03-06T12:21:23.413Z,33.26
2023-03-06T12:26:56.416Z,32.87
2023-03-06T12:32:01.442Z,33.79
2023-03-06T12:37:38.572Z,33.91
2023-03-06T12:42:55.600Z,33.36
2023-03-06T12:47:58.814Z,33.49
2023-03-06T12:53:04.176Z,33.68
2023-03-06T12:58:27.759Z,33.75
2023-03-06T13:03:35.059Z,33.27
2023-03-06T13:09:04.900Z,32.54
2023-03-06T13:14:42.276Z,32.55
2023-03-06T13:20:16.398Z,32.54
2023-03-06T13:25:30.211Z,32.61
2023-03-06T13:30:35.736Z,33.16
2023-03-06T13:35:40.506Z,32.67
2023-03-06T13:40:42.473Z,32.79
2023-03-06T13:45:46.762Z,32.30
2023-03-06T13:50:49.096Z,32.45
2023-03-06T13:56:03.971Z,32.44
2023-03-06T14:01:24.572Z,32.25
2023-03-06T14:06:37.012Z,33.08
2023-03-06T14:11:45.748Z,33.35
2023-03-06T14:16:50.852Z,33.87
2023-03-06T14:21:57.388Z,34.20
2023-03-06T14:27:00.924Z,34.71
2023-03-06T14:32:05.771Z,34.75
2023-03-06T14:37:20.530Z,34.64
2023-03-06T14:42:27.737Z,35.81
2023-03-06T14:47:32.460Z,35.87
2023-03-06T14:52:35.480Z,36.93
2023-03-06T14:57:37.970Z,36.37
2023-03-06T15:02:39.986Z,38.00
2023-03-06T15:07:42.438Z,37.66
2023-03-06T15:12:44.521Z,37.47
2023-03-06T15:17:48.137Z,38.12
2023-03-06T15:22:50.633Z,39.48
2023-03-06T15:27:56.094Z,39.92
2023-03-06T15:33:19.267Z,41.98
2023-03-06T15:38:31.273Z,42.77
2023-03-06T15:43:38.987Z,42.56
2023-03-06T15:48:51.462Z,43.78
2023-03-06T15:53:59.731Z,44.01
2023-03-06T15:59:32.654Z,44.01
2023-03-06T16:04:34.550Z,44.78
2023-03-06T16:09:36.914Z,45.71
2023-03-06T16:14:39.611Z,45.77
2023-03-06T16:19:41.687Z,46.93
2023-03-06T16:24:43.775Z,47.40
2023-03-06T16:29:46.368Z,48.36
2023-03-06T16:34:48.342Z,47.63
2023-03-06T16:39:50.524Z,44.50
2023-03-06T16:44:52.399Z,44.19
2023-03-06T16:49:57.531Z,47.82
2023-03-06T16:54:59.692Z,49.11
2023-03-06T17:00:01.920Z,48.18
2023-03-06T17:05:07.034Z,49.67
2023-03-06T17:10:13.812Z,49.76
2023-03-06T17:15:22.920Z,50.79
2023-03-06T17:20:27.049Z,52.40
2023-03-06T17:25:29.544Z,53.49
2023-03-06T17:30:35.682Z,53.81
2023-03-06T17:35:39.349Z,54.51
2023-03-06T17:40:41.217Z,54.66
2023-03-06T17:45:43.408Z,55.53
2023-03-06T17:50:53.683Z,56.51
2023-03-06T17:55:59.512Z,57.45
2023-03-06T18:01:17.429Z,57.99
2023-03-06T18:06:22.038Z,58.05
2023-03-06T18:11:24.317Z,59.33
2023-03-06T18:16:26.653Z,58.63
2023-03-06T18:21:28.893Z,57.81
2023-03-06T18:26:33.020Z,57.95
2023-03-06T18:31:41.635Z,58.14
2023-03-06T18:36:46.813Z,58.61
2023-03-06T18:41:49.212Z,59.92
2023-03-06T18:46:52.204Z,60.44
2023-03-06T18:51:55.529Z,61.16
2023-03-06T18:56:58.619Z,61.78
2023-03-06T19:02:02.887Z,62.78
2023-03-06T19:07:06.677Z,61.53
2023-03-06T19:12:11.234Z,64.44
2023-03-06T19:17:15.268Z,67.27
2023-03-06T19:22:22.040Z,69.25
2023-03-06T19:27:26.074Z,69.27
2023-03-06T19:32:28.561Z,70.16
2023-03-06T19:37:32.084Z,69.94
2023-03-06T19:42:34.169Z,69.37
2023-03-06T19:47:36.550Z,69.16
2023-03-06T19:52:38.992Z,69.39
2023-03-06T19:57:41.632Z,69.53
2023-03-06T20:02:43.406Z,69.32
2023-03-06T20:07:47.975Z,68.82
2023-03-06T20:12:50.539Z,68.39
2023-03-06T20:17:52.825Z,68.66
2023-03-06T20:22:54.902Z,68.79
2023-03-06T20:27:56.882Z,69.74
2023-03-06T20:32:59.164Z,71.40
2023-03-06T20:38:01.146Z,71.97
2023-03-06T20:43:03.532Z,71.39
2023-03-06T20:48:06.449Z,71.28
2023-03-06T20:53:10.571Z,71.40
2023-03-06T20:58:13.252Z,71.47
2023-03-06T21:03:17.088Z,71.79
2023-03-06T21:08:19.064Z,71.63
2023-03-06T21:13:21.149Z,71.88
2023-03-06T21:18:23.023Z,72.12
2023-03-06T21:23:24.901Z,72.05
2023-03-06T21:28:27.496Z,71.76
2023-03-06T21:33:29.285Z,71.97
2023-03-06T21:38:31.790Z,72.58
2023-03-06T21:43:33.756Z,72.92
2023-03-06T21:48:35.932Z,73.22
2023-03-06T21:53:41.196Z,73.74
2023-03-06T21:58:44.920Z,74.44
2023-03-06T22:03:47.153Z,74.61
2023-03-06T22:08:49.819Z,74.61
2023-03-06T22:13:55.262Z,74.59
2023-03-06T22:18:57.560Z,74.64
2023-03-06T22:23:59.344Z,75.15
2023-03-06T22:29:01.080Z,75.19
2023-03-06T22:34:03.888Z,75.68
2023-03-06T22:39:05.552Z,76.05
2023-03-06T22:44:07.442Z,75.98
2023-03-06T22:49:11.244Z,75.65
2023-03-06T22:54:12.949Z,75.15
2023-03-06T22:59:14.790Z,74.05
2023-03-06T23:04:16.785Z,72.63
2023-03-06T23:09:21.213Z,71.37
2023-03-06T23:14:23.012Z,71.36
2023-03-06T23:19:25.376Z,70.09
2023-03-06T23:24:28.383Z,68.51
2023-03-06T23:29:30.155Z,70.53
2023-03-06T23:34:31.940Z,70.20
2023-03-06T23:39:33.605Z,71.40
2023-03-06T23:44:36.401Z,69.16
2023-03-06T23:49:39.508Z,68.90
2023-03-06T23:54:41.178Z,68.60
2023-03-06T23:59:43.875Z,67.62
